sensor_id;sensor_type;location;lat;lon;timestamp;P1;durP1;ratioP1;P2;durP2;ratioP2
7829;SDS011;3960;51.86894000;5.39848000;2023-06-22T00:01:20;6.63;;;5.22;;
7829;SDS011;3960;51.86894000;5.39848000;2023-06-22T00:03:47;7.80;;;5.20;;
7829;SDS011;3960;51.86894000;5.39848000;2023-06-22T00:06:12;10.70;;;5.35;;
7829;SDS011;3960;51.86894000;5.39848000;2023-06-22T00:08:38;9.93;;;5.60;;
7829;SDS011;3960;51.86894000;5.39848000;2023-06-22T00:11:03;6.85;;;5.18;;
7829;SDS011;3960;51.86894000;5.39848000;2023-06-22T00:13:28;6.88;;;4.70;;
7829;SDS011;3960;51.86894000;5.39848000;2023-06-22T00:15:54;8.15;;;5.65;;
7829;SDS011;3960;51.86894000;5.39848000;2023-06-22T00:18:19;6.40;;;4.97;;
7829;SDS011;3960;51.86894000;5.39848000;2023-06-22T00:20:45;9.88;;;5.32;;
7829;SDS011;3960;51.86894000;5.39848000;2023-06-22T00:23:10;9.48;;;5.88;;
7829;SDS011;3960;51.86894000;5.39848000;2023-06-22T00:25:39;8.38;;;5.82;;
7829;SDS011;3960;51.86894000;5.39848000;2023-06-22T00:28:05;10.40;;;6.47;;
7829;SDS011;3960;51.86894000;5.39848000;2023-06-22T00:30:31;8.27;;;5.85;;
7829;SDS011;3960;51.86894000;5.39848000;2023-06-22T00:32:57;10.70;;;5.90;;
7829;SDS011;3960;51.86894000;5.39848000;2023-06-22T00:35:23;9.15;;;5.90;;
7829;SDS011;3960;51.86894000;5.39848000;2023-06-22T00:37:53;9.88;;;5.88;;
7829;SDS011;3960;51.86894000;5.39848000;2023-06-22T00:40:25;10.18;;;5.93;;
7829;SDS011;3960;51.86894000;5.39848000;2023-06-22T00:42:51;8.00;;;5.60;;
7829;SDS011;3960;51.86894000;5.39848000;2023-06-22T00:45:16;7.88;;;4.97;;
7829;SDS011;3960;51.86894000;5.39848000;2023-06-22T00:47:41;7.00;;;5.40;;
7829;SDS011;3960;51.86894000;5.39848000;2023-06-22T00:50:08;11.00;;;6.20;;
7829;SDS011;3960;51.86894000;5.39848000;2023-06-22T00:52:34;6.93;;;5.20;;
7829;SDS011;3960;51.86894000;5.39848000;2023-06-22T00:55:00;7.80;;;5.68;;
7829;SDS011;3960;51.86894000;5.39848000;2023-06-22T00:57:27;13.00;;;6.47;;
7829;SDS011;3960;51.86894000;5.39848000;2023-06-22T00:59:53;7.15;;;6.40;;
7829;SDS011;3960;51.86894000;5.39848000;2023-06-22T01:02:19;8.20;;;5.53;;
7829;SDS011;3960;51.86894000;5.39848000;2023-06-22T01:04:45;8.18;;;5.80;;
7829;SDS011;3960;51.86894000;5.39848000;2023-06-22T01:10:03;10.65;;;6.32;;
7829;SDS011;3960;51.86894000;5.39848000;2023-06-22T01:12:52;13.88;;;6.65;;
7829;SDS011;3960;51.86894000;5.39848000;2023-06-22T01:15:25;9.10;;;6.63;;
7829;SDS011;3960;51.86894000;5.39848000;2023-06-22T01:18:03;8.15;;;6.28;;
7829;SDS011;3960;51.86894000;5.39848000;2023-06-22T01:20:30;9.68;;;7.05;;
7829;SDS011;3960;51.86894000;5.39848000;2023-06-22T01:23:01;9.70;;;6.88;;
7829;SDS011;3960;51.86894000;5.39848000;2023-06-22T01:25:31;11.15;;;7.32;;
7829;SDS011;3960;51.86894000;5.39848000;2023-06-22T01:30:48;12.38;;;7.35;;
7829;SDS011;3960;51.86894000;5.39848000;2023-06-22T01:33:14;8.70;;;7.18;;
7829;SDS011;3960;51.86894000;5.39848000;2023-06-22T01:35:41;9.88;;;7.15;;
7829;SDS011;3960;51.86894000;5.39848000;2023-06-22T01:38:07;11.95;;;6.95;;
7829;SDS011;3960;51.86894000;5.39848000;2023-06-22T01:40:33;12.07;;;8.18;;
7829;SDS011;3960;51.86894000;5.39848000;2023-06-22T01:43:00;9.45;;;6.50;;
7829;SDS011;3960;51.86894000;5.39848000;2023-06-22T01:45:27;10.07;;;7.18;;
7829;SDS011;3960;51.86894000;5.39848000;2023-06-22T01:47:53;9.43;;;7.05;;
7829;SDS011;3960;51.86894000;5.39848000;2023-06-22T01:50:19;9.10;;;6.55;;
7829;SDS011;3960;51.86894000;5.39848000;2023-06-22T01:52:45;8.50;;;6.55;;
7829;SDS011;3960;51.86894000;5.39848000;2023-06-22T01:55:10;10.13;;;6.78;;
7829;SDS011;3960;51.86894000;5.39848000;2023-06-22T01:57:36;9.77;;;6.35;;
7829;SDS011;3960;51.86894000;5.39848000;2023-06-22T02:00:04;8.73;;;6.57;;
7829;SDS011;3960;51.86894000;5.39848000;2023-06-22T02:02:39;9.35;;;7.38;;
7829;SDS011;3960;51.86894000;5.39848000;2023-06-22T02:05:09;10.30;;;7.22;;
7829;SDS011;3960;51.86894000;5.39848000;2023-06-22T02:10:34;9.40;;;6.38;;
7829;SDS011;3960;51.86894000;5.39848000;2023-06-22T02:13:01;8.00;;;5.65;;
7829;SDS011;3960;51.86894000;5.39848000;2023-06-22T02:15:29;8.93;;;6.45;;
7829;SDS011;3960;51.86894000;5.39848000;2023-06-22T02:17:55;9.82;;;6.03;;
7829;SDS011;3960;51.86894000;5.39848000;2023-06-22T02:20:21;9.63;;;6.38;;
7829;SDS011;3960;51.86894000;5.39848000;2023-06-22T02:22:46;11.00;;;6.45;;
7829;SDS011;3960;51.86894000;5.39848000;2023-06-22T02:25:11;10.50;;;6.57;;
7829;SDS011;3960;51.86894000;5.39848000;2023-06-22T02:27:36;10.45;;;6.53;;
7829;SDS011;3960;51.86894000;5.39848000;2023-06-22T02:30:05;9.10;;;6.70;;
7829;SDS011;3960;51.86894000;5.39848000;2023-06-22T02:32:36;10.38;;;5.72;;
7829;SDS011;3960;51.86894000;5.39848000;2023-06-22T02:35:02;8.30;;;5.72;;
7829;SDS011;3960;51.86894000;5.39848000;2023-06-22T02:37:31;8.35;;;6.65;;
7829;SDS011;3960;51.86894000;5.39848000;2023-06-22T02:39:57;11.07;;;7.03;;
7829;SDS011;3960;51.86894000;5.39848000;2023-06-22T02:42:22;13.32;;;7.85;;
7829;SDS011;3960;51.86894000;5.39848000;2023-06-22T02:44:47;11.35;;;7.85;;
7829;SDS011;3960;51.86894000;5.39848000;2023-06-22T02:47:13;12.05;;;8.13;;
7829;SDS011;3960;51.86894000;5.39848000;2023-06-22T02:49:38;10.27;;;7.40;;
7829;SDS011;3960;51.86894000;5.39848000;2023-06-22T02:52:03;10.93;;;7.63;;
7829;SDS011;3960;51.86894000;5.39848000;2023-06-22T02:54:29;11.02;;;7.88;;
7829;SDS011;3960;51.86894000;5.39848000;2023-06-22T02:56:54;11.90;;;7.70;;
7829;SDS011;3960;51.86894000;5.39848000;2023-06-22T02:59:19;9.65;;;7.63;;
7829;SDS011;3960;51.86894000;5.39848000;2023-06-22T03:01:48;12.10;;;7.45;;
7829;SDS011;3960;51.86894000;5.39848000;2023-06-22T03:04:15;9.52;;;7.93;;
7829;SDS011;3960;51.86894000;5.39848000;2023-06-22T03:06:40;11.23;;;8.15;;
7829;SDS011;3960;51.86894000;5.39848000;2023-06-22T03:09:06;11.52;;;7.97;;
7829;SDS011;3960;51.86894000;5.39848000;2023-06-22T03:11:32;12.93;;;8.25;;
7829;SDS011;3960;51.86894000;5.39848000;2023-06-22T03:13:58;10.88;;;8.05;;
7829;SDS011;3960;51.86894000;5.39848000;2023-06-22T03:16:25;11.80;;;7.97;;
7829;SDS011;3960;51.86894000;5.39848000;2023-06-22T03:18:50;12.32;;;8.75;;
7829;SDS011;3960;51.86894000;5.39848000;2023-06-22T03:21:15;11.63;;;8.23;;
7829;SDS011;3960;51.86894000;5.39848000;2023-06-22T03:23:41;11.52;;;8.75;;
7829;SDS011;3960;51.86894000;5.39848000;2023-06-22T03:26:08;11.95;;;8.05;;
7829;SDS011;3960;51.86894000;5.39848000;2023-06-22T03:28:34;12.77;;;8.35;;
7829;SDS011;3960;51.86894000;5.39848000;2023-06-22T03:30:59;11.10;;;7.82;;
7829;SDS011;3960;51.86894000;5.39848000;2023-06-22T03:33:24;12.90;;;8.45;;
7829;SDS011;3960;51.86894000;5.39848000;2023-06-22T03:35:50;12.48;;;7.97;;
7829;SDS011;3960;51.86894000;5.39848000;2023-06-22T03:38:16;10.75;;;8.50;;
7829;SDS011;3960;51.86894000;5.39848000;2023-06-22T03:40:42;10.68;;;7.82;;
7829;SDS011;3960;51.86894000;5.39848000;2023-06-22T03:43:07;12.68;;;8.68;;
7829;SDS011;3960;51.86894000;5.39848000;2023-06-22T03:45:32;10.15;;;7.90;;
7829;SDS011;3960;51.86894000;5.39848000;2023-06-22T03:47:58;13.00;;;8.20;;
7829;SDS011;3960;51.86894000;5.39848000;2023-06-22T03:50:23;12.65;;;8.20;;
7829;SDS011;3960;51.86894000;5.39848000;2023-06-22T03:52:48;9.82;;;7.85;;
7829;SDS011;3960;51.86894000;5.39848000;2023-06-22T03:55:14;12.50;;;8.07;;
7829;SDS011;3960;51.86894000;5.39848000;2023-06-22T03:57:39;10.40;;;7.85;;
7829;SDS011;3960;51.86894000;5.39848000;2023-06-22T04:00:04;11.57;;;8.20;;
7829;SDS011;3960;51.86894000;5.39848000;2023-06-22T04:02:34;11.82;;;7.55;;
7829;SDS011;3960;51.86894000;5.39848000;2023-06-22T04:05:00;9.85;;;7.07;;
7829;SDS011;3960;51.86894000;5.39848000;2023-06-22T04:07:25;10.35;;;7.80;;
7829;SDS011;3960;51.86894000;5.39848000;2023-06-22T04:09:50;10.18;;;8.02;;
7829;SDS011;3960;51.86894000;5.39848000;2023-06-22T04:12:15;10.90;;;7.88;;
7829;SDS011;3960;51.86894000;5.39848000;2023-06-22T04:14:41;13.40;;;8.98;;
7829;SDS011;3960;51.86894000;5.39848000;2023-06-22T04:17:06;11.40;;;8.05;;
7829;SDS011;3960;51.86894000;5.39848000;2023-06-22T04:19:31;10.27;;;7.65;;
7829;SDS011;3960;51.86894000;5.39848000;2023-06-22T04:21:57;14.82;;;8.25;;
7829;SDS011;3960;51.86894000;5.39848000;2023-06-22T04:24:22;9.55;;;7.63;;
7829;SDS011;3960;51.86894000;5.39848000;2023-06-22T04:26:47;12.75;;;8.25;;
7829;SDS011;3960;51.86894000;5.39848000;2023-06-22T04:29:13;12.30;;;8.48;;
7829;SDS011;3960;51.86894000;5.39848000;2023-06-22T04:31:38;9.57;;;8.13;;
7829;SDS011;3960;51.86894000;5.39848000;2023-06-22T04:34:04;11.07;;;8.10;;
7829;SDS011;3960;51.86894000;5.39848000;2023-06-22T04:39:03;13.43;;;8.73;;
7829;SDS011;3960;51.86894000;5.39848000;2023-06-22T04:41:38;13.27;;;8.88;;
7829;SDS011;3960;51.86894000;5.39848000;2023-06-22T04:44:10;16.20;;;9.13;;
7829;SDS011;3960;51.86894000;5.39848000;2023-06-22T04:46:36;16.67;;;10.00;;
7829;SDS011;3960;51.86894000;5.39848000;2023-06-22T04:49:06;12.93;;;8.68;;
7829;SDS011;3960;51.86894000;5.39848000;2023-06-22T04:51:35;14.30;;;8.93;;
7829;SDS011;3960;51.86894000;5.39848000;2023-06-22T04:54:04;13.15;;;8.35;;
7829;SDS011;3960;51.86894000;5.39848000;2023-06-22T04:56:30;13.43;;;8.93;;
7829;SDS011;3960;51.86894000;5.39848000;2023-06-22T04:58:56;12.13;;;8.73;;
7829;SDS011;3960;51.86894000;5.39848000;2023-06-22T05:01:22;12.63;;;8.70;;
7829;SDS011;3960;51.86894000;5.39848000;2023-06-22T05:03:48;11.98;;;8.35;;
7829;SDS011;3960;51.86894000;5.39848000;2023-06-22T05:06:13;12.52;;;7.63;;
7829;SDS011;3960;51.86894000;5.39848000;2023-06-22T05:08:39;15.93;;;9.05;;
7829;SDS011;3960;51.86894000;5.39848000;2023-06-22T05:11:05;12.73;;;9.27;;
7829;SDS011;3960;51.86894000;5.39848000;2023-06-22T05:13:30;18.27;;;9.77;;
7829;SDS011;3960;51.86894000;5.39848000;2023-06-22T05:15:55;11.88;;;8.85;;
7829;SDS011;3960;51.86894000;5.39848000;2023-06-22T05:18:26;12.63;;;9.15;;
7829;SDS011;3960;51.86894000;5.39848000;2023-06-22T05:20:52;11.15;;;8.75;;
7829;SDS011;3960;51.86894000;5.39848000;2023-06-22T05:23:18;15.35;;;9.45;;
7829;SDS011;3960;51.86894000;5.39848000;2023-06-22T05:25:44;12.40;;;9.48;;
7829;SDS011;3960;51.86894000;5.39848000;2023-06-22T05:28:09;16.60;;;9.70;;
7829;SDS011;3960;51.86894000;5.39848000;2023-06-22T05:30:36;14.07;;;10.80;;
7829;SDS011;3960;51.86894000;5.39848000;2023-06-22T05:33:01;16.48;;;10.10;;
7829;SDS011;3960;51.86894000;5.39848000;2023-06-22T05:35:27;12.85;;;9.80;;
7829;SDS011;3960;51.86894000;5.39848000;2023-06-22T05:37:52;14.70;;;10.25;;
7829;SDS011;3960;51.86894000;5.39848000;2023-06-22T05:40:17;14.98;;;10.40;;
7829;SDS011;3960;51.86894000;5.39848000;2023-06-22T05:42:43;16.60;;;10.85;;
7829;SDS011;3960;51.86894000;5.39848000;2023-06-22T05:45:08;14.20;;;10.77;;
7829;SDS011;3960;51.86894000;5.39848000;2023-06-22T05:47:43;12.60;;;11.18;;
7829;SDS011;3960;51.86894000;5.39848000;2023-06-22T05:53:38;15.70;;;11.05;;
7829;SDS011;3960;51.86894000;5.39848000;2023-06-22T05:56:03;16.05;;;10.95;;
7829;SDS011;3960;51.86894000;5.39848000;2023-06-22T05:58:29;15.60;;;11.07;;
7829;SDS011;3960;51.86894000;5.39848000;2023-06-22T06:00:54;17.00;;;11.13;;
7829;SDS011;3960;51.86894000;5.39848000;2023-06-22T06:03:19;14.95;;;11.30;;
7829;SDS011;3960;51.86894000;5.39848000;2023-06-22T06:05:45;16.70;;;10.65;;
7829;SDS011;3960;51.86894000;5.39848000;2023-06-22T06:08:10;12.88;;;10.23;;
7829;SDS011;3960;51.86894000;5.39848000;2023-06-22T06:10:37;18.85;;;11.70;;
7829;SDS011;3960;51.86894000;5.39848000;2023-06-22T06:13:02;18.63;;;10.95;;
7829;SDS011;3960;51.86894000;5.39848000;2023-06-22T06:15:29;14.07;;;10.35;;
7829;SDS011;3960;51.86894000;5.39848000;2023-06-22T06:17:55;14.93;;;10.50;;
7829;SDS011;3960;51.86894000;5.39848000;2023-06-22T06:20:21;13.18;;;10.68;;
7829;SDS011;3960;51.86894000;5.39848000;2023-06-22T06:22:48;14.45;;;10.60;;
7829;SDS011;3960;51.86894000;5.39848000;2023-06-22T06:25:13;12.93;;;10.70;;
7829;SDS011;3960;51.86894000;5.39848000;2023-06-22T06:27:42;15.13;;;11.00;;
7829;SDS011;3960;51.86894000;5.39848000;2023-06-22T06:30:08;17.15;;;10.68;;
7829;SDS011;3960;51.86894000;5.39848000;2023-06-22T06:32:37;14.85;;;11.32;;
7829;SDS011;3960;51.86894000;5.39848000;2023-06-22T06:35:05;17.70;;;12.13;;
7829;SDS011;3960;51.86894000;5.39848000;2023-06-22T06:37:31;16.17;;;11.48;;
7829;SDS011;3960;51.86894000;5.39848000;2023-06-22T06:39:56;14.60;;;11.50;;
7829;SDS011;3960;51.86894000;5.39848000;2023-06-22T06:42:22;14.35;;;11.00;;
7829;SDS011;3960;51.86894000;5.39848000;2023-06-22T06:44:49;16.20;;;11.57;;
7829;SDS011;3960;51.86894000;5.39848000;2023-06-22T06:47:15;15.25;;;11.35;;
7829;SDS011;3960;51.86894000;5.39848000;2023-06-22T06:49:40;16.58;;;11.98;;
7829;SDS011;3960;51.86894000;5.39848000;2023-06-22T06:52:05;15.65;;;11.65;;
7829;SDS011;3960;51.86894000;5.39848000;2023-06-22T06:54:31;22.60;;;13.55;;
7829;SDS011;3960;51.86894000;5.39848000;2023-06-22T06:56:56;14.10;;;11.77;;
7829;SDS011;3960;51.86894000;5.39848000;2023-06-22T06:59:21;17.30;;;11.48;;
7829;SDS011;3960;51.86894000;5.39848000;2023-06-22T07:01:47;15.48;;;11.07;;
7829;SDS011;3960;51.86894000;5.39848000;2023-06-22T07:04:13;16.35;;;11.85;;
7829;SDS011;3960;51.86894000;5.39848000;2023-06-22T07:06:39;16.42;;;11.73;;
7829;SDS011;3960;51.86894000;5.39848000;2023-06-22T07:09:04;18.63;;;11.43;;
7829;SDS011;3960;51.86894000;5.39848000;2023-06-22T07:11:29;16.23;;;10.95;;
7829;SDS011;3960;51.86894000;5.39848000;2023-06-22T07:13:54;16.95;;;10.80;;
7829;SDS011;3960;51.86894000;5.39848000;2023-06-22T07:16:20;15.00;;;11.07;;
7829;SDS011;3960;51.86894000;5.39848000;2023-06-22T07:18:45;16.95;;;11.43;;
7829;SDS011;3960;51.86894000;5.39848000;2023-06-22T07:21:10;17.60;;;11.38;;
7829;SDS011;3960;51.86894000;5.39848000;2023-06-22T07:23:35;16.25;;;11.48;;
7829;SDS011;3960;51.86894000;5.39848000;2023-06-22T07:26:01;14.23;;;10.57;;
7829;SDS011;3960;51.86894000;5.39848000;2023-06-22T07:28:27;11.95;;;10.35;;
7829;SDS011;3960;51.86894000;5.39848000;2023-06-22T07:30:53;12.85;;;10.07;;
7829;SDS011;3960;51.86894000;5.39848000;2023-06-22T07:33:18;18.08;;;9.60;;
7829;SDS011;3960;51.86894000;5.39848000;2023-06-22T07:35:44;12.80;;;9.98;;
7829;SDS011;3960;51.86894000;5.39848000;2023-06-22T07:38:09;11.30;;;9.57;;
7829;SDS011;3960;51.86894000;5.39848000;2023-06-22T07:40:35;14.63;;;9.82;;
7829;SDS011;3960;51.86894000;5.39848000;2023-06-22T07:43:01;13.85;;;10.10;;
7829;SDS011;3960;51.86894000;5.39848000;2023-06-22T07:45:26;13.75;;;10.10;;
7829;SDS011;3960;51.86894000;5.39848000;2023-06-22T07:47:52;13.50;;;9.63;;
7829;SDS011;3960;51.86894000;5.39848000;2023-06-22T07:50:17;13.75;;;9.60;;
7829;SDS011;3960;51.86894000;5.39848000;2023-06-22T07:52:42;13.23;;;9.35;;
7829;SDS011;3960;51.86894000;5.39848000;2023-06-22T07:55:08;15.60;;;8.85;;
7829;SDS011;3960;51.86894000;5.39848000;2023-06-22T07:57:33;12.50;;;8.73;;
7829;SDS011;3960;51.86894000;5.39848000;2023-06-22T08:00:02;10.15;;;8.25;;
7829;SDS011;3960;51.86894000;5.39848000;2023-06-22T08:02:38;10.25;;;8.23;;
7829;SDS011;3960;51.86894000;5.39848000;2023-06-22T08:05:05;12.90;;;8.70;;
7829;SDS011;3960;51.86894000;5.39848000;2023-06-22T08:07:32;11.93;;;7.75;;
7829;SDS011;3960;51.86894000;5.39848000;2023-06-22T08:09:58;10.07;;;7.65;;
7829;SDS011;3960;51.86894000;5.39848000;2023-06-22T08:12:23;11.20;;;7.93;;
7829;SDS011;3960;51.86894000;5.39848000;2023-06-22T08:14:48;11.75;;;7.55;;
7829;SDS011;3960;51.86894000;5.39848000;2023-06-22T08:17:14;14.15;;;7.18;;
7829;SDS011;3960;51.86894000;5.39848000;2023-06-22T08:19:39;10.90;;;6.68;;
7829;SDS011;3960;51.86894000;5.39848000;2023-06-22T08:22:05;8.30;;;5.97;;
7829;SDS011;3960;51.86894000;5.39848000;2023-06-22T08:24:30;6.53;;;5.13;;
7829;SDS011;3960;51.86894000;5.39848000;2023-06-22T08:26:56;7.97;;;5.45;;
7829;SDS011;3960;51.86894000;5.39848000;2023-06-22T08:29:21;8.32;;;5.50;;
7829;SDS011;3960;51.86894000;5.39848000;2023-06-22T08:31:46;8.93;;;5.43;;
7829;SDS011;3960;51.86894000;5.39848000;2023-06-22T08:34:12;6.97;;;5.35;;
7829;SDS011;3960;51.86894000;5.39848000;2023-06-22T08:36:37;8.25;;;5.82;;
7829;SDS011;3960;51.86894000;5.39848000;2023-06-22T08:39:06;9.02;;;5.65;;
7829;SDS011;3960;51.86894000;5.39848000;2023-06-22T08:41:31;7.25;;;5.38;;
7829;SDS011;3960;51.86894000;5.39848000;2023-06-22T08:43:56;7.18;;;5.38;;
7829;SDS011;3960;51.86894000;5.39848000;2023-06-22T08:46:22;9.93;;;5.28;;
7829;SDS011;3960;51.86894000;5.39848000;2023-06-22T08:48:54;9.10;;;5.63;;
7829;SDS011;3960;51.86894000;5.39848000;2023-06-22T08:51:20;7.40;;;5.63;;
7829;SDS011;3960;51.86894000;5.39848000;2023-06-22T08:53:45;7.68;;;5.28;;
7829;SDS011;3960;51.86894000;5.39848000;2023-06-22T08:56:10;7.60;;;4.80;;
7829;SDS011;3960;51.86894000;5.39848000;2023-06-22T08:58:36;7.57;;;4.40;;
7829;SDS011;3960;51.86894000;5.39848000;2023-06-22T09:01:01;7.18;;;4.10;;
7829;SDS011;3960;51.86894000;5.39848000;2023-06-22T09:03:27;8.65;;;4.40;;
7829;SDS011;3960;51.86894000;5.39848000;2023-06-22T09:05:52;7.25;;;3.88;;
7829;SDS011;3960;51.86894000;5.39848000;2023-06-22T09:08:17;9.25;;;3.97;;
7829;SDS011;3960;51.86894000;5.39848000;2023-06-22T09:10:43;5.75;;;3.90;;
7829;SDS011;3960;51.86894000;5.39848000;2023-06-22T09:13:08;6.68;;;4.60;;
7829;SDS011;3960;51.86894000;5.39848000;2023-06-22T09:15:33;5.72;;;4.13;;
7829;SDS011;3960;51.86894000;5.39848000;2023-06-22T09:17:59;5.78;;;4.15;;
7829;SDS011;3960;51.86894000;5.39848000;2023-06-22T09:20:25;5.35;;;3.90;;
7829;SDS011;3960;51.86894000;5.39848000;2023-06-22T09:22:50;6.53;;;4.78;;
7829;SDS011;3960;51.86894000;5.39848000;2023-06-22T09:25:15;6.50;;;4.40;;
7829;SDS011;3960;51.86894000;5.39848000;2023-06-22T09:27:41;6.22;;;4.78;;
7829;SDS011;3960;51.86894000;5.39848000;2023-06-22T09:30:06;7.13;;;4.75;;
7829;SDS011;3960;51.86894000;5.39848000;2023-06-22T09:32:32;6.50;;;4.15;;
7829;SDS011;3960;51.86894000;5.39848000;2023-06-22T09:34:57;6.60;;;4.60;;
7829;SDS011;3960;51.86894000;5.39848000;2023-06-22T09:37:23;8.27;;;5.10;;
7829;SDS011;3960;51.86894000;5.39848000;2023-06-22T09:39:48;8.10;;;4.88;;
7829;SDS011;3960;51.86894000;5.39848000;2023-06-22T09:42:13;7.00;;;5.18;;
7829;SDS011;3960;51.86894000;5.39848000;2023-06-22T09:44:39;7.28;;;5.38;;
7829;SDS011;3960;51.86894000;5.39848000;2023-06-22T09:47:04;7.18;;;4.78;;
7829;SDS011;3960;51.86894000;5.39848000;2023-06-22T09:49:30;9.98;;;5.25;;
7829;SDS011;3960;51.86894000;5.39848000;2023-06-22T09:51:55;8.80;;;5.45;;
7829;SDS011;3960;51.86894000;5.39848000;2023-06-22T09:54:21;9.73;;;4.53;;
7829;SDS011;3960;51.86894000;5.39848000;2023-06-22T09:56:46;8.40;;;5.13;;
7829;SDS011;3960;51.86894000;5.39848000;2023-06-22T09:59:11;8.73;;;5.35;;
7829;SDS011;3960;51.86894000;5.39848000;2023-06-22T10:01:36;8.38;;;5.55;;
7829;SDS011;3960;51.86894000;5.39848000;2023-06-22T10:04:02;8.60;;;5.65;;
7829;SDS011;3960;51.86894000;5.39848000;2023-06-22T10:06:27;7.43;;;5.40;;
7829;SDS011;3960;51.86894000;5.39848000;2023-06-22T10:08:53;6.97;;;5.05;;
7829;SDS011;3960;51.86894000;5.39848000;2023-06-22T10:11:18;6.65;;;5.15;;
7829;SDS011;3960;51.86894000;5.39848000;2023-06-22T10:13:43;9.10;;;5.20;;
7829;SDS011;3960;51.86894000;5.39848000;2023-06-22T10:16:09;12.70;;;5.18;;
7829;SDS011;3960;51.86894000;5.39848000;2023-06-22T10:18:34;7.35;;;5.50;;
7829;SDS011;3960;51.86894000;5.39848000;2023-06-22T10:20:59;10.48;;;5.20;;
7829;SDS011;3960;51.86894000;5.39848000;2023-06-22T10:23:25;10.90;;;4.85;;
7829;SDS011;3960;51.86894000;5.39848000;2023-06-22T10:25:50;7.22;;;4.53;;
7829;SDS011;3960;51.86894000;5.39848000;2023-06-22T10:28:15;8.82;;;4.53;;
7829;SDS011;3960;51.86894000;5.39848000;2023-06-22T10:30:41;7.32;;;4.22;;
7829;SDS011;3960;51.86894000;5.39848000;2023-06-22T10:33:07;7.25;;;5.20;;
7829;SDS011;3960;51.86894000;5.39848000;2023-06-22T10:35:33;7.70;;;4.90;;
7829;SDS011;3960;51.86894000;5.39848000;2023-06-22T10:37:58;8.18;;;4.53;;
7829;SDS011;3960;51.86894000;5.39848000;2023-06-22T10:40:24;6.30;;;4.72;;
7829;SDS011;3960;51.86894000;5.39848000;2023-06-22T10:42:49;6.30;;;4.50;;
7829;SDS011;3960;51.86894000;5.39848000;2023-06-22T10:45:15;7.05;;;4.97;;
7829;SDS011;3960;51.86894000;5.39848000;2023-06-22T10:47:40;13.20;;;5.00;;
7829;SDS011;3960;51.86894000;5.39848000;2023-06-22T10:50:07;6.93;;;4.65;;
7829;SDS011;3960;51.86894000;5.39848000;2023-06-22T10:52:32;11.63;;;4.72;;
7829;SDS011;3960;51.86894000;5.39848000;2023-06-22T10:54:58;7.05;;;4.57;;
7829;SDS011;3960;51.86894000;5.39848000;2023-06-22T10:57:23;6.53;;;4.13;;
7829;SDS011;3960;51.86894000;5.39848000;2023-06-22T10:59:48;6.70;;;4.60;;
7829;SDS011;3960;51.86894000;5.39848000;2023-06-22T11:02:14;11.98;;;4.78;;
7829;SDS011;3960;51.86894000;5.39848000;2023-06-22T11:04:39;7.28;;;4.00;;
7829;SDS011;3960;51.86894000;5.39848000;2023-06-22T11:07:05;5.75;;;4.30;;
7829;SDS011;3960;51.86894000;5.39848000;2023-06-22T11:09:30;7.15;;;4.53;;
7829;SDS011;3960;51.86894000;5.39848000;2023-06-22T11:11:56;6.60;;;4.75;;
7829;SDS011;3960;51.86894000;5.39848000;2023-06-22T11:14:23;6.13;;;4.32;;
7829;SDS011;3960;51.86894000;5.39848000;2023-06-22T11:16:49;6.13;;;4.55;;
7829;SDS011;3960;51.86894000;5.39848000;2023-06-22T11:19:14;5.90;;;4.18;;
7829;SDS011;3960;51.86894000;5.39848000;2023-06-22T11:21:40;7.30;;;4.32;;
7829;SDS011;3960;51.86894000;5.39848000;2023-06-22T11:24:05;4.80;;;3.60;;
7829;SDS011;3960;51.86894000;5.39848000;2023-06-22T11:26:31;5.70;;;4.85;;
7829;SDS011;3960;51.86894000;5.39848000;2023-06-22T11:29:00;9.05;;;4.75;;
7829;SDS011;3960;51.86894000;5.39848000;2023-06-22T11:31:25;6.15;;;4.22;;
7829;SDS011;3960;51.86894000;5.39848000;2023-06-22T11:33:50;6.18;;;4.20;;
7829;SDS011;3960;51.86894000;5.39848000;2023-06-22T11:36:16;7.10;;;4.40;;
7829;SDS011;3960;51.86894000;5.39848000;2023-06-22T11:38:42;7.57;;;4.20;;
7829;SDS011;3960;51.86894000;5.39848000;2023-06-22T11:41:08;5.53;;;4.30;;
7829;SDS011;3960;51.86894000;5.39848000;2023-06-22T11:43:34;7.75;;;5.32;;
7829;SDS011;3960;51.86894000;5.39848000;2023-06-22T11:46:01;8.85;;;4.93;;
7829;SDS011;3960;51.86894000;5.39848000;2023-06-22T11:48:28;6.50;;;5.43;;
7829;SDS011;3960;51.86894000;5.39848000;2023-06-22T11:50:53;8.68;;;5.10;;
7829;SDS011;3960;51.86894000;5.39848000;2023-06-22T11:53:20;8.88;;;6.18;;
7829;SDS011;3960;51.86894000;5.39848000;2023-06-22T11:55:49;6.50;;;5.20;;
7829;SDS011;3960;51.86894000;5.39848000;2023-06-22T11:58:14;10.05;;;5.32;;
7829;SDS011;3960;51.86894000;5.39848000;2023-06-22T12:00:39;6.50;;;5.20;;
7829;SDS011;3960;51.86894000;5.39848000;2023-06-22T12:03:05;7.18;;;5.32;;
7829;SDS011;3960;51.86894000;5.39848000;2023-06-22T12:05:30;9.45;;;5.28;;
7829;SDS011;3960;51.86894000;5.39848000;2023-06-22T12:07:55;5.70;;;5.10;;
7829;SDS011;3960;51.86894000;5.39848000;2023-06-22T12:10:21;6.63;;;5.60;;
7829;SDS011;3960;51.86894000;5.39848000;2023-06-22T12:12:47;7.70;;;5.45;;
7829;SDS011;3960;51.86894000;5.39848000;2023-06-22T12:15:13;9.93;;;5.60;;
7829;SDS011;3960;51.86894000;5.39848000;2023-06-22T12:17:38;12.90;;;6.03;;
7829;SDS011;3960;51.86894000;5.39848000;2023-06-22T12:20:05;7.40;;;5.80;;
7829;SDS011;3960;51.86894000;5.39848000;2023-06-22T12:22:35;8.48;;;6.07;;
7829;SDS011;3960;51.86894000;5.39848000;2023-06-22T12:25:02;8.80;;;6.50;;
7829;SDS011;3960;51.86894000;5.39848000;2023-06-22T12:27:28;8.43;;;6.30;;
7829;SDS011;3960;51.86894000;5.39848000;2023-06-22T12:29:56;13.60;;;8.18;;
7829;SDS011;3960;51.86894000;5.39848000;2023-06-22T12:32:21;11.40;;;7.97;;
7829;SDS011;3960;51.86894000;5.39848000;2023-06-22T12:34:47;11.75;;;9.25;;
7829;SDS011;3960;51.86894000;5.39848000;2023-06-22T12:37:12;15.90;;;9.60;;
7829;SDS011;3960;51.86894000;5.39848000;2023-06-22T12:39:39;10.15;;;9.00;;
7829;SDS011;3960;51.86894000;5.39848000;2023-06-22T12:42:05;10.15;;;8.35;;
7829;SDS011;3960;51.86894000;5.39848000;2023-06-22T12:44:37;15.75;;;10.68;;
7829;SDS011;3960;51.86894000;5.39848000;2023-06-22T12:47:03;12.13;;;10.15;;
7829;SDS011;3960;51.86894000;5.39848000;2023-06-22T12:49:28;12.32;;;10.70;;
7829;SDS011;3960;51.86894000;5.39848000;2023-06-22T12:51:53;15.63;;;10.30;;
7829;SDS011;3960;51.86894000;5.39848000;2023-06-22T12:54:19;13.88;;;10.82;;
7829;SDS011;3960;51.86894000;5.39848000;2023-06-22T12:56:44;13.27;;;11.75;;
7829;SDS011;3960;51.86894000;5.39848000;2023-06-22T12:59:10;16.88;;;10.68;;
7829;SDS011;3960;51.86894000;5.39848000;2023-06-22T13:01:35;15.52;;;11.50;;
7829;SDS011;3960;51.86894000;5.39848000;2023-06-22T13:04:02;16.77;;;11.65;;
7829;SDS011;3960;51.86894000;5.39848000;2023-06-22T13:06:28;17.38;;;12.63;;
7829;SDS011;3960;51.86894000;5.39848000;2023-06-22T13:08:53;15.25;;;12.68;;
7829;SDS011;3960;51.86894000;5.39848000;2023-06-22T13:11:18;17.77;;;14.90;;